sensor_id;sensor_type;location;lat;lon;timestamp;P1;durP1;ratioP1;P2;durP2;ratioP2
1725;SDS011;41776;48.260;8.928;2023-07-31T00:00:43;4.63;;;1.77;;
1725;SDS011;41776;48.260;8.928;2023-07-31T00:03:11;4.00;;;1.80;;
1725;SDS011;41776;48.260;8.928;2023-07-31T00:05:39;5.03;;;1.93;;
1725;SDS011;41776;48.260;8.928;2023-07-31T00:08:05;4.00;;;1.80;;
1725;SDS011;41776;48.260;8.928;2023-07-31T00:10:32;5.73;;;2.03;;
1725;SDS011;41776;48.260;8.928;2023-07-31T00:13:02;3.53;;;2.10;;
1725;SDS011;41776;48.260;8.928;2023-07-31T00:15:28;5.77;;;1.67;;
1725;SDS011;41776;48.260;8.928;2023-07-31T00:17:57;6.83;;;1.90;;
1725;SDS011;41776;48.260;8.928;2023-07-31T00:20:24;4.30;;;1.70;;
1725;SDS011;41776;48.260;8.928;2023-07-31T00:22:52;4.73;;;1.60;;
1725;SDS011;41776;48.260;8.928;2023-07-31T00:25:18;3.10;;;1.70;;
1725;SDS011;41776;48.260;8.928;2023-07-31T00:27:44;6.03;;;2.00;;
1725;SDS011;41776;48.260;8.928;2023-07-31T00:30:14;5.77;;;1.80;;
1725;SDS011;41776;48.260;8.928;2023-07-31T00:32:43;9.47;;;1.70;;
1725;SDS011;41776;48.260;8.928;2023-07-31T00:35:09;3.10;;;1.40;;
1725;SDS011;41776;48.260;8.928;2023-07-31T00:37:38;5.70;;;1.70;;
1725;SDS011;41776;48.260;8.928;2023-07-31T00:40:06;13.40;;;2.10;;
1725;SDS011;41776;48.260;8.928;2023-07-31T00:42:37;4.23;;;1.53;;
1725;SDS011;41776;48.260;8.928;2023-07-31T00:45:04;7.53;;;1.80;;
1725;SDS011;41776;48.260;8.928;2023-07-31T00:47:31;5.43;;;1.87;;
1725;SDS011;41776;48.260;8.928;2023-07-31T00:49:57;4.20;;;1.73;;
1725;SDS011;41776;48.260;8.928;2023-07-31T00:52:24;7.50;;;1.80;;
1725;SDS011;41776;48.260;8.928;2023-07-31T00:54:51;8.77;;;1.90;;
1725;SDS011;41776;48.260;8.928;2023-07-31T00:57:19;4.53;;;1.70;;
1725;SDS011;41776;48.260;8.928;2023-07-31T00:59:48;7.97;;;1.70;;
1725;SDS011;41776;48.260;8.928;2023-07-31T01:02:14;4.10;;;1.97;;
1725;SDS011;41776;48.260;8.928;2023-07-31T01:04:43;5.33;;;1.67;;
1725;SDS011;41776;48.260;8.928;2023-07-31T01:07:11;2.97;;;1.60;;
1725;SDS011;41776;48.260;8.928;2023-07-31T01:09:40;5.03;;;1.77;;
1725;SDS011;41776;48.260;8.928;2023-07-31T01:12:12;3.50;;;1.50;;
1725;SDS011;41776;48.260;8.928;2023-07-31T01:14:42;4.07;;;1.70;;
1725;SDS011;41776;48.260;8.928;2023-07-31T01:17:17;5.17;;;1.70;;
1725;SDS011;41776;48.260;8.928;2023-07-31T01:19:43;5.60;;;2.00;;
1725;SDS011;41776;48.260;8.928;2023-07-31T01:22:30;3.40;;;1.90;;
1725;SDS011;41776;48.260;8.928;2023-07-31T01:25:11;3.23;;;2.00;;
1725;SDS011;41776;48.260;8.928;2023-07-31T01:27:50;5.87;;;1.53;;
1725;SDS011;41776;48.260;8.928;2023-07-31T01:30:21;3.13;;;1.23;;
1725;SDS011;41776;48.260;8.928;2023-07-31T01:32:51;6.07;;;1.60;;
1725;SDS011;41776;48.260;8.928;2023-07-31T01:35:20;4.03;;;1.63;;
1725;SDS011;41776;48.260;8.928;2023-07-31T01:37:47;4.67;;;2.20;;
1725;SDS011;41776;48.260;8.928;2023-07-31T01:40:14;3.83;;;1.90;;
1725;SDS011;41776;48.260;8.928;2023-07-31T01:42:40;7.80;;;2.07;;
1725;SDS011;41776;48.260;8.928;2023-07-31T01:45:09;5.03;;;1.80;;
1725;SDS011;41776;48.260;8.928;2023-07-31T01:47:36;4.97;;;1.80;;
1725;SDS011;41776;48.260;8.928;2023-07-31T01:50:02;5.73;;;2.10;;
1725;SDS011;41776;48.260;8.928;2023-07-31T01:52:29;4.13;;;1.80;;
1725;SDS011;41776;48.260;8.928;2023-07-31T01:54:57;6.90;;;1.90;;
1725;SDS011;41776;48.260;8.928;2023-07-31T01:57:24;4.50;;;1.83;;
1725;SDS011;41776;48.260;8.928;2023-07-31T01:59:54;5.97;;;1.90;;
1725;SDS011;41776;48.260;8.928;2023-07-31T02:02:22;5.87;;;1.73;;
1725;SDS011;41776;48.260;8.928;2023-07-31T02:04:50;5.47;;;2.17;;
1725;SDS011;41776;48.260;8.928;2023-07-31T02:07:19;3.97;;;1.87;;
1725;SDS011;41776;48.260;8.928;2023-07-31T02:09:48;9.60;;;1.87;;
1725;SDS011;41776;48.260;8.928;2023-07-31T02:12:15;2.00;;;1.70;;
1725;SDS011;41776;48.260;8.928;2023-07-31T02:14:42;6.57;;;2.27;;
1725;SDS011;41776;48.260;8.928;2023-07-31T02:17:08;3.93;;;2.00;;
1725;SDS011;41776;48.260;8.928;2023-07-31T02:19:38;2.90;;;2.20;;
1725;SDS011;41776;48.260;8.928;2023-07-31T02:22:04;6.17;;;2.30;;
1725;SDS011;41776;48.260;8.928;2023-07-31T02:24:34;4.83;;;1.97;;
1725;SDS011;41776;48.260;8.928;2023-07-31T02:27:00;4.77;;;2.40;;
1725;SDS011;41776;48.260;8.928;2023-07-31T02:29:27;4.53;;;1.80;;
1725;SDS011;41776;48.260;8.928;2023-07-31T02:31:53;4.93;;;2.00;;
1725;SDS011;41776;48.260;8.928;2023-07-31T02:34:20;8.40;;;2.13;;
1725;SDS011;41776;48.260;8.928;2023-07-31T02:36:50;6.67;;;2.10;;
1725;SDS011;41776;48.260;8.928;2023-07-31T02:39:19;4.17;;;2.00;;
1725;SDS011;41776;48.260;8.928;2023-07-31T02:41:46;5.10;;;2.20;;
1725;SDS011;41776;48.260;8.928;2023-07-31T02:44:13;4.77;;;2.10;;
1725;SDS011;41776;48.260;8.928;2023-07-31T02:46:43;3.57;;;1.90;;
1725;SDS011;41776;48.260;8.928;2023-07-31T02:49:10;5.87;;;2.70;;
1725;SDS011;41776;48.260;8.928;2023-07-31T02:51:39;3.87;;;1.97;;
1725;SDS011;41776;48.260;8.928;2023-07-31T02:54:07;4.80;;;2.37;;
1725;SDS011;41776;48.260;8.928;2023-07-31T02:56:34;6.67;;;2.10;;
1725;SDS011;41776;48.260;8.928;2023-07-31T02:59:00;3.93;;;2.00;;
1725;SDS011;41776;48.260;8.928;2023-07-31T03:01:26;6.03;;;2.37;;
1725;SDS011;41776;48.260;8.928;2023-07-31T03:03:57;6.90;;;1.93;;
1725;SDS011;41776;48.260;8.928;2023-07-31T03:06:23;8.30;;;2.87;;
1725;SDS011;41776;48.260;8.928;2023-07-31T03:08:51;7.70;;;2.20;;
1725;SDS011;41776;48.260;8.928;2023-07-31T03:11:19;6.60;;;2.10;;
1725;SDS011;41776;48.260;8.928;2023-07-31T03:13:45;6.60;;;2.37;;
1725;SDS011;41776;48.260;8.928;2023-07-31T03:16:12;5.37;;;2.20;;
1725;SDS011;41776;48.260;8.928;2023-07-31T03:18:38;4.07;;;1.97;;
1725;SDS011;41776;48.260;8.928;2023-07-31T03:21:06;8.80;;;2.17;;
1725;SDS011;41776;48.260;8.928;2023-07-31T03:23:33;2.40;;;1.80;;
1725;SDS011;41776;48.260;8.928;2023-07-31T03:26:00;7.90;;;2.37;;
1725;SDS011;41776;48.260;8.928;2023-07-31T03:28:29;9.13;;;2.00;;
1725;SDS011;41776;48.260;8.928;2023-07-31T03:30:56;3.57;;;2.23;;
1725;SDS011;41776;48.260;8.928;2023-07-31T03:33:22;6.10;;;2.20;;
1725;SDS011;41776;48.260;8.928;2023-07-31T03:35:49;3.00;;;2.20;;
1725;SDS011;41776;48.260;8.928;2023-07-31T03:38:15;12.27;;;2.77;;
1725;SDS011;41776;48.260;8.928;2023-07-31T03:40:42;3.27;;;2.03;;
1725;SDS011;41776;48.260;8.928;2023-07-31T03:43:09;9.77;;;2.50;;
1725;SDS011;41776;48.260;8.928;2023-07-31T03:45:37;5.07;;;2.20;;
1725;SDS011;41776;48.260;8.928;2023-07-31T03:48:03;6.30;;;2.73;;
1725;SDS011;41776;48.260;8.928;2023-07-31T03:50:33;7.53;;;3.03;;
1725;SDS011;41776;48.260;8.928;2023-07-31T03:52:59;6.10;;;2.37;;
1725;SDS011;41776;48.260;8.928;2023-07-31T03:55:26;4.67;;;2.17;;
1725;SDS011;41776;48.260;8.928;2023-07-31T03:57:52;3.87;;;2.30;;
1725;SDS011;41776;48.260;8.928;2023-07-31T04:00:19;5.90;;;2.10;;
1725;SDS011;41776;48.260;8.928;2023-07-31T04:02:48;6.37;;;2.47;;
1725;SDS011;41776;48.260;8.928;2023-07-31T04:05:14;4.40;;;2.47;;
1725;SDS011;41776;48.260;8.928;2023-07-31T04:07:45;7.73;;;2.30;;
1725;SDS011;41776;48.260;8.928;2023-07-31T04:10:11;4.40;;;2.40;;
1725;SDS011;41776;48.260;8.928;2023-07-31T04:12:38;7.30;;;2.20;;
1725;SDS011;41776;48.260;8.928;2023-07-31T04:15:05;5.57;;;1.80;;
1725;SDS011;41776;48.260;8.928;2023-07-31T04:17:32;7.03;;;2.37;;
1725;SDS011;41776;48.260;8.928;2023-07-31T04:20:03;4.77;;;2.27;;
1725;SDS011;41776;48.260;8.928;2023-07-31T04:22:30;9.53;;;2.30;;
1725;SDS011;41776;48.260;8.928;2023-07-31T04:25:00;9.77;;;2.27;;
1725;SDS011;41776;48.260;8.928;2023-07-31T04:27:26;6.97;;;2.33;;
1725;SDS011;41776;48.260;8.928;2023-07-31T04:29:58;13.93;;;2.77;;
1725;SDS011;41776;48.260;8.928;2023-07-31T04:32:24;5.77;;;2.20;;
1725;SDS011;41776;48.260;8.928;2023-07-31T04:34:50;5.23;;;2.37;;
1725;SDS011;41776;48.260;8.928;2023-07-31T04:37:18;5.03;;;2.60;;
1725;SDS011;41776;48.260;8.928;2023-07-31T04:39:45;4.33;;;1.90;;
1725;SDS011;41776;48.260;8.928;2023-07-31T04:42:12;5.37;;;2.00;;
1725;SDS011;41776;48.260;8.928;2023-07-31T04:44:38;5.93;;;2.07;;
1725;SDS011;41776;48.260;8.928;2023-07-31T04:47:05;6.80;;;1.80;;
1725;SDS011;41776;48.260;8.928;2023-07-31T04:49:35;3.20;;;2.00;;
1725;SDS011;41776;48.260;8.928;2023-07-31T04:52:03;6.13;;;2.20;;
1725;SDS011;41776;48.260;8.928;2023-07-31T04:54:32;4.27;;;2.17;;
1725;SDS011;41776;48.260;8.928;2023-07-31T04:56:58;10.03;;;2.60;;
1725;SDS011;41776;48.260;8.928;2023-07-31T04:59:25;5.30;;;2.43;;
1725;SDS011;41776;48.260;8.928;2023-07-31T05:01:53;4.97;;;2.20;;
1725;SDS011;41776;48.260;8.928;2023-07-31T05:04:20;9.43;;;2.33;;
1725;SDS011;41776;48.260;8.928;2023-07-31T05:06:48;4.45;;;2.08;;
1725;SDS011;41776;48.260;8.928;2023-07-31T05:09:15;4.82;;;1.90;;
1725;SDS011;41776;48.260;8.928;2023-07-31T05:11:43;7.75;;;1.98;;
1725;SDS011;41776;48.260;8.928;2023-07-31T05:14:12;6.15;;;1.88;;
1725;SDS011;41776;48.260;8.928;2023-07-31T05:16:40;4.07;;;2.20;;
1725;SDS011;41776;48.260;8.928;2023-07-31T05:19:07;5.53;;;1.70;;
1725;SDS011;41776;48.260;8.928;2023-07-31T05:21:34;10.38;;;2.10;;
1725;SDS011;41776;48.260;8.928;2023-07-31T05:24:02;6.13;;;2.00;;
1725;SDS011;41776;48.260;8.928;2023-07-31T05:26:29;4.85;;;1.80;;
1725;SDS011;41776;48.260;8.928;2023-07-31T05:28:57;2.75;;;1.90;;
1725;SDS011;41776;48.260;8.928;2023-07-31T05:31:23;3.33;;;1.77;;
1725;SDS011;41776;48.260;8.928;2023-07-31T05:33:50;4.15;;;2.00;;
1725;SDS011;41776;48.260;8.928;2023-07-31T05:36:17;3.22;;;1.40;;
1725;SDS011;41776;48.260;8.928;2023-07-31T05:38:44;5.85;;;1.65;;
1725;SDS011;41776;48.260;8.928;2023-07-31T05:41:12;5.90;;;1.45;;
1725;SDS011;41776;48.260;8.928;2023-07-31T05:43:39;3.35;;;1.60;;
1725;SDS011;41776;48.260;8.928;2023-07-31T05:46:10;4.00;;;1.75;;
1725;SDS011;41776;48.260;8.928;2023-07-31T05:48:38;4.28;;;1.73;;
1725;SDS011;41776;48.260;8.928;2023-07-31T05:51:07;4.45;;;1.50;;
1725;SDS011;41776;48.260;8.928;2023-07-31T05:53:33;7.32;;;1.73;;
1725;SDS011;41776;48.260;8.928;2023-07-31T05:56:01;3.92;;;1.58;;
1725;SDS011;41776;48.260;8.928;2023-07-31T05:58:27;3.60;;;1.92;;
1725;SDS011;41776;48.260;8.928;2023-07-31T06:00:54;4.30;;;1.50;;
1725;SDS011;41776;48.260;8.928;2023-07-31T06:03:24;4.82;;;1.40;;
1725;SDS011;41776;48.260;8.928;2023-07-31T06:05:50;2.58;;;1.63;;
1725;SDS011;41776;48.260;8.928;2023-07-31T06:08:19;4.70;;;1.55;;
1725;SDS011;41776;48.260;8.928;2023-07-31T06:10:46;3.88;;;2.00;;
1725;SDS011;41776;48.260;8.928;2023-07-31T06:13:12;6.53;;;1.98;;
1725;SDS011;41776;48.260;8.928;2023-07-31T06:15:39;3.47;;;1.30;;
1725;SDS011;41776;48.260;8.928;2023-07-31T06:18:08;8.35;;;2.13;;
1725;SDS011;41776;48.260;8.928;2023-07-31T06:20:36;4.05;;;1.70;;
1725;SDS011;41776;48.260;8.928;2023-07-31T06:23:05;4.82;;;1.50;;
1725;SDS011;41776;48.260;8.928;2023-07-31T06:25:32;3.70;;;1.40;;
1725;SDS011;41776;48.260;8.928;2023-07-31T06:27:58;4.35;;;1.60;;
1725;SDS011;41776;48.260;8.928;2023-07-31T06:30:25;5.70;;;1.48;;
1725;SDS011;41776;48.260;8.928;2023-07-31T06:32:51;3.63;;;1.33;;
1725;SDS011;41776;48.260;8.928;2023-07-31T06:35:20;3.95;;;1.42;;
1725;SDS011;41776;48.260;8.928;2023-07-31T06:37:48;5.60;;;1.30;;
1725;SDS011;41776;48.260;8.928;2023-07-31T06:40:16;5.50;;;1.50;;
1725;SDS011;41776;48.260;8.928;2023-07-31T06:42:43;9.45;;;1.67;;
1725;SDS011;41776;48.260;8.928;2023-07-31T06:45:11;6.95;;;1.60;;
1725;SDS011;41776;48.260;8.928;2023-07-31T06:47:37;3.22;;;1.30;;
1725;SDS011;41776;48.260;8.928;2023-07-31T06:50:07;7.63;;;1.58;;
1725;SDS011;41776;48.260;8.928;2023-07-31T06:52:36;3.80;;;1.60;;
1725;SDS011;41776;48.260;8.928;2023-07-31T06:55:18;5.00;;;1.42;;
1725;SDS011;41776;48.260;8.928;2023-07-31T06:57:52;4.65;;;1.33;;
1725;SDS011;41776;48.260;8.928;2023-07-31T07:00:22;4.80;;;1.65;;
1725;SDS011;41776;48.260;8.928;2023-07-31T07:02:49;3.03;;;1.30;;
1725;SDS011;41776;48.260;8.928;2023-07-31T07:05:16;5.63;;;1.30;;
1725;SDS011;41776;48.260;8.928;2023-07-31T07:07:45;7.65;;;1.50;;
1725;SDS011;41776;48.260;8.928;2023-07-31T07:10:13;3.60;;;1.40;;
1725;SDS011;41776;48.260;8.928;2023-07-31T07:12:40;5.70;;;1.48;;
1725;SDS011;41776;48.260;8.928;2023-07-31T07:15:08;7.03;;;1.45;;
1725;SDS011;41776;48.260;8.928;2023-07-31T07:17:35;3.42;;;1.30;;
1725;SDS011;41776;48.260;8.928;2023-07-31T07:20:03;10.30;;;2.97;;
1725;SDS011;41776;48.260;8.928;2023-07-31T07:22:31;4.93;;;1.70;;
1725;SDS011;41776;48.260;8.928;2023-07-31T07:24:57;8.30;;;1.40;;
1725;SDS011;41776;48.260;8.928;2023-07-31T07:27:27;5.32;;;1.23;;
1725;SDS011;41776;48.260;8.928;2023-07-31T07:29:56;5.88;;;1.80;;
1725;SDS011;41776;48.260;8.928;2023-07-31T07:32:22;5.38;;;1.30;;
1725;SDS011;41776;48.260;8.928;2023-07-31T07:34:51;3.30;;;1.30;;
1725;SDS011;41776;48.260;8.928;2023-07-31T07:37:18;3.63;;;1.38;;
1725;SDS011;41776;48.260;8.928;2023-07-31T07:39:44;4.40;;;1.55;;
1725;SDS011;41776;48.260;8.928;2023-07-31T07:42:14;3.92;;;1.50;;
1725;SDS011;41776;48.260;8.928;2023-07-31T07:44:42;6.20;;;1.73;;
1725;SDS011;41776;48.260;8.928;2023-07-31T07:47:08;4.75;;;1.27;;
1725;SDS011;41776;48.260;8.928;2023-07-31T07:49:35;2.70;;;1.25;;
1725;SDS011;41776;48.260;8.928;2023-07-31T07:52:04;2.90;;;1.30;;
1725;SDS011;41776;48.260;8.928;2023-07-31T07:54:33;5.60;;;1.60;;
1725;SDS011;41776;48.260;8.928;2023-07-31T07:57:00;5.10;;;1.50;;
1725;SDS011;41776;48.260;8.928;2023-07-31T07:59:29;7.57;;;1.25;;
1725;SDS011;41776;48.260;8.928;2023-07-31T08:01:57;5.82;;;1.17;;
1725;SDS011;41776;48.260;8.928;2023-07-31T08:04:23;4.85;;;1.40;;
1725;SDS011;41776;48.260;8.928;2023-07-31T08:06:59;6.90;;;1.58;;
1725;SDS011;41776;48.260;8.928;2023-07-31T08:09:28;4.25;;;1.35;;
1725;SDS011;41776;48.260;8.928;2023-07-31T08:11:54;4.50;;;1.30;;
1725;SDS011;41776;48.260;8.928;2023-07-31T08:14:22;5.75;;;1.60;;
1725;SDS011;41776;48.260;8.928;2023-07-31T08:16:49;3.92;;;1.58;;
1725;SDS011;41776;48.260;8.928;2023-07-31T08:19:17;7.78;;;1.52;;
1725;SDS011;41776;48.260;8.928;2023-07-31T08:21:43;5.20;;;1.70;;
1725;SDS011;41776;48.260;8.928;2023-07-31T08:24:10;4.32;;;1.60;;
1725;SDS011;41776;48.260;8.928;2023-07-31T08:26:36;3.42;;;1.67;;
1725;SDS011;41776;48.260;8.928;2023-07-31T08:29:03;4.55;;;1.40;;
1725;SDS011;41776;48.260;8.928;2023-07-31T08:31:29;4.13;;;1.55;;
1725;SDS011;41776;48.260;8.928;2023-07-31T08:33:59;3.78;;;1.35;;
1725;SDS011;41776;48.260;8.928;2023-07-31T08:36:27;4.78;;;1.60;;
1725;SDS011;41776;48.260;8.928;2023-07-31T08:38:56;5.72;;;1.45;;
1725;SDS011;41776;48.260;8.928;2023-07-31T08:41:25;6.15;;;1.73;;
1725;SDS011;41776;48.260;8.928;2023-07-31T08:43:54;3.70;;;1.40;;
1725;SDS011;41776;48.260;8.928;2023-07-31T08:46:24;5.50;;;1.63;;
1725;SDS011;41776;48.260;8.928;2023-07-31T08:48:51;7.47;;;1.77;;
1725;SDS011;41776;48.260;8.928;2023-07-31T08:51:19;4.55;;;1.30;;
1725;SDS011;41776;48.260;8.928;2023-07-31T08:53:47;5.30;;;1.40;;
1725;SDS011;41776;48.260;8.928;2023-07-31T08:56:14;5.45;;;1.58;;
1725;SDS011;41776;48.260;8.928;2023-07-31T08:58:43;3.92;;;1.52;;
1725;SDS011;41776;48.260;8.928;2023-07-31T09:01:13;4.95;;;1.85;;
1725;SDS011;41776;48.260;8.928;2023-07-31T09:03:41;7.40;;;1.55;;
1725;SDS011;41776;48.260;8.928;2023-07-31T09:06:10;8.35;;;1.85;;
1725;SDS011;41776;48.260;8.928;2023-07-31T09:08:39;4.85;;;1.73;;
1725;SDS011;41776;48.260;8.928;2023-07-31T09:11:09;5.30;;;1.70;;
1725;SDS011;41776;48.260;8.928;2023-07-31T09:13:35;4.93;;;1.63;;
1725;SDS011;41776;48.260;8.928;2023-07-31T09:16:05;3.45;;;1.40;;
1725;SDS011;41776;48.260;8.928;2023-07-31T09:18:31;6.03;;;1.83;;
1725;SDS011;41776;48.260;8.928;2023-07-31T09:21:01;7.00;;;1.65;;
1725;SDS011;41776;48.260;8.928;2023-07-31T09:23:39;4.53;;;1.50;;
1725;SDS011;41776;48.260;8.928;2023-07-31T09:26:08;4.80;;;1.70;;
1725;SDS011;41776;48.260;8.928;2023-07-31T09:28:38;8.73;;;1.55;;
1725;SDS011;41776;48.260;8.928;2023-07-31T09:31:04;5.32;;;1.42;;
1725;SDS011;41776;48.260;8.928;2023-07-31T09:33:34;5.65;;;1.55;;
1725;SDS011;41776;48.260;8.928;2023-07-31T09:36:20;4.32;;;1.50;;
1725;SDS011;41776;48.260;8.928;2023-07-31T09:38:48;3.45;;;1.63;;
1725;SDS011;41776;48.260;8.928;2023-07-31T09:41:16;5.75;;;1.30;;
1725;SDS011;41776;48.260;8.928;2023-07-31T09:43:44;5.13;;;1.27;;
1725;SDS011;41776;48.260;8.928;2023-07-31T09:46:22;5.15;;;1.55;;
1725;SDS011;41776;48.260;8.928;2023-07-31T09:48:50;7.57;;;1.95;;
1725;SDS011;41776;48.260;8.928;2023-07-31T09:51:17;4.50;;;1.33;;
1725;SDS011;41776;48.260;8.928;2023-07-31T09:53:51;4.97;;;1.40;;
1725;SDS011;41776;48.260;8.928;2023-07-31T09:56:19;8.55;;;1.77;;
1725;SDS011;41776;48.260;8.928;2023-07-31T09:58:48;5.53;;;1.80;;
1725;SDS011;41776;48.260;8.928;2023-07-31T10:01:16;4.22;;;1.60;;
1725;SDS011;41776;48.260;8.928;2023-07-31T10:03:42;5.18;;;1.75;;
1725;SDS011;41776;48.260;8.928;2023-07-31T10:06:11;3.85;;;1.40;;
1725;SDS011;41776;48.260;8.928;2023-07-31T10:08:40;6.03;;;1.60;;
1725;SDS011;41776;48.260;8.928;2023-07-31T10:11:12;5.07;;;2.05;;
1725;SDS011;41776;48.260;8.928;2023-07-31T10:13:43;4.55;;;1.85;;
1725;SDS011;41776;48.260;8.928;2023-07-31T10:16:13;3.45;;;1.30;;
1725;SDS011;41776;48.260;8.928;2023-07-31T10:18:48;4.47;;;1.60;;
1725;SDS011;41776;48.260;8.928;2023-07-31T10:21:18;3.58;;;1.30;;
1725;SDS011;41776;48.260;8.928;2023-07-31T10:23:45;7.68;;;1.80;;
1725;SDS011;41776;48.260;8.928;2023-07-31T10:26:16;4.50;;;1.70;;
1725;SDS011;41776;48.260;8.928;2023-07-31T10:28:46;3.80;;;1.27;;
1725;SDS011;41776;48.260;8.928;2023-07-31T10:31:17;3.72;;;1.48;;
1725;SDS011;41776;48.260;8.928;2023-07-31T10:33:46;5.53;;;1.70;;
1725;SDS011;41776;48.260;8.928;2023-07-31T10:36:13;3.47;;;1.30;;
1725;SDS011;41776;48.260;8.928;2023-07-31T10:38:41;9.43;;;1.83;;
1725;SDS011;41776;48.260;8.928;2023-07-31T10:41:08;5.18;;;1.50;;
1725;SDS011;41776;48.260;8.928;2023-07-31T10:43:46;5.80;;;1.80;;
1725;SDS011;41776;48.260;8.928;2023-07-31T10:46:13;3.75;;;1.42;;
1725;SDS011;41776;48.260;8.928;2023-07-31T10:48:40;6.15;;;1.23;;
1725;SDS011;41776;48.260;8.928;2023-07-31T10:51:08;5.63;;;1.42;;
1725;SDS011;41776;48.260;8.928;2023-07-31T10:53:37;8.00;;;1.52;;
1725;SDS011;41776;48.260;8.928;2023-07-31T10:56:06;3.80;;;1.35;;
1725;SDS011;41776;48.260;8.928;2023-07-31T10:58:34;3.92;;;1.30;;
1725;SDS011;41776;48.260;8.928;2023-07-31T11:01:06;3.45;;;1.27;;
1725;SDS011;41776;48.260;8.928;2023-07-31T11:03:42;3.75;;;1.50;;
1725;SDS011;41776;48.260;8.928;2023-07-31T11:06:09;3.92;;;1.67;;
1725;SDS011;41776;48.260;8.928;2023-07-31T11:08:42;3.30;;;1.30;;
1725;SDS011;41776;48.260;8.928;2023-07-31T11:11:33;4.07;;;1.23;;
1725;SDS011;41776;48.260;8.928;2023-07-31T11:14:07;4.55;;;1.13;;
1725;SDS011;41776;48.260;8.928;2023-07-31T11:16:38;3.58;;;1.60;;
1725;SDS011;41776;48.260;8.928;2023-07-31T11:19:08;5.03;;;1.65;;
1725;SDS011;41776;48.260;8.928;2023-07-31T11:21:35;7.82;;;1.52;;
1725;SDS011;41776;48.260;8.928;2023-07-31T11:24:03;4.28;;;1.63;;
1725;SDS011;41776;48.260;8.928;2023-07-31T11:26:30;4.75;;;1.70;;
1725;SDS011;41776;48.260;8.928;2023-07-31T11:28:59;4.55;;;1.35;;
1725;SDS011;41776;48.260;8.928;2023-07-31T11:31:26;6.30;;;2.05;;
1725;SDS011;41776;48.260;8.928;2023-07-31T11:34:05;3.13;;;1.20;;
1725;SDS011;41776;48.260;8.928;2023-07-31T11:36:31;6.32;;;1.52;;
1725;SDS011;41776;48.260;8.928;2023-07-31T11:39:04;5.47;;;1.70;;
1725;SDS011;41776;48.260;8.928;2023-07-31T11:41:31;6.55;;;1.88;;
1725;SDS011;41776;48.260;8.928;2023-07-31T11:43:59;8.18;;;2.03;;
1725;SDS011;41776;48.260;8.928;2023-07-31T11:46:25;5.63;;;1.42;;
1725;SDS011;41776;48.260;8.928;2023-07-31T11:48:52;5.35;;;1.90;;
1725;SDS011;41776;48.260;8.928;2023-07-31T11:51:27;3.08;;;1.50;;
1725;SDS011;41776;48.260;8.928;2023-07-31T11:53:56;6.03;;;1.70;;
1725;SDS011;41776;48.260;8.928;2023-07-31T11:56:25;5.30;;;1.60;;
1725;SDS011;41776;48.260;8.928;2023-07-31T11:58:53;5.65;;;1.90;;
1725;SDS011;41776;48.260;8.928;2023-07-31T12:01:21;4.75;;;1.70;;
1725;SDS011;41776;48.260;8.928;2023-07-31T12:03:50;4.13;;;1.90;;
1725;SDS011;41776;48.260;8.928;2023-07-31T12:06:18;4.95;;;1.73;;
1725;SDS011;41776;48.260;8.928;2023-07-31T12:08:47;3.97;;;1.50;;
1725;SDS011;41776;48.260;8.928;2023-07-31T12:11:14;7.80;;;1.67;;
1725;SDS011;41776;48.260;8.928;2023-07-31T12:13:42;4.35;;;2.08;;
1725;SDS011;41776;48.260;8.928;2023-07-31T12:16:09;3.47;;;1.75;;
1725;SDS011;41776;48.260;8.928;2023-07-31T12:18:36;3.33;;;1.90;;
1725;SDS011;41776;48.260;8.928;2023-07-31T12:21:04;6.78;;;2.20;;
1725;SDS011;41776;48.260;8.928;2023-07-31T12:23:32;3.40;;;1.90;;
1725;SDS011;41776;48.260;8.928;2023-07-31T12:26:01;4.70;;;1.80;;
1725;SDS011;41776;48.260;8.928;2023-07-31T12:28:28;2.75;;;1.58;;
1725;SDS011;41776;48.260;8.928;2023-07-31T12:30:56;5.22;;;1.90;;
1725;SDS011;41776;48.260;8.928;2023-07-31T12:33:23;3.03;;;1.67;;
1725;SDS011;41776;48.260;8.928;2023-07-31T12:35:50;5.72;;;2.10;;
1725;SDS011;41776;48.260;8.928;2023-07-31T12:38:17;4.82;;;2.10;;
1725;SDS011;41776;48.260;8.928;2023-07-31T12:40:44;5.32;;;2.22;;
1725;SDS011;41776;48.260;8.928;2023-07-31T12:43:13;3.05;;;1.60;;
1725;SDS011;41776;48.260;8.928;2023-07-31T12:45:39;3.83;;;2.00;;
1725;SDS011;41776;48.260;8.928;2023-07-31T12:48:06;2.90;;;1.73;;
1725;SDS011;41776;48.260;8.928;2023-07-31T12:50:32;4.50;;;1.92;;
1725;SDS011;41776;48.260;8.928;2023-07-31T12:53:01;4.38;;;2.13;;
1725;SDS011;41776;48.260;8.928;2023-07-31T12:55:28;3.53;;;1.90;;
1725;SDS011;41776;48.260;8.928;2023-07-31T12:57:55;4.68;;;2.30;;
1725;SDS011;41776;48.260;8.928;2023-07-31T13:00:23;5.22;;;2.30;;
1725;SDS011;41776;48.260;8.928;2023-07-31T13:02:51;6.68;;;2.15;;
1725;SDS011;41776;48.260;8.928;2023-07-31T13:05:18;4.38;;;2.00;;
1725;SDS011;41776;48.260;8.928;2023-07-31T13:07:45;10.13;;;2.30;;
1725;SDS011;41776;48.260;8.928;2023-07-31T13:10:12;5.47;;;1.88;;
1725;SDS011;41776;48.260;8.928;2023-07-31T13:12:39;4.63;;;2.17;;
1725;SDS011;41776;48.260;8.928;2023-07-31T13:15:06;3.10;;;1.70;;
1725;SDS011;41776;48.260;8.928;2023-07-31T13:17:35;4.13;;;1.70;;
1725;SDS011;41776;48.260;8.928;2023-07-31T13:20:02;3.38;;;1.67;;
1725;SDS011;41776;48.260;8.928;2023-07-31T13:22:30;7.20;;;1.70;;
1725;SDS011;41776;48.260;8.928;2023-07-31T13:24:57;7.70;;;2.47;;
1725;SDS011;41776;48.260;8.928;2023-07-31T13:27:24;3.72;;;1.88;;
1725;SDS011;41776;48.260;8.928;2023-07-31T13:29:51;2.67;;;1.90;;
1725;SDS011;41776;48.260;8.928;2023-07-31T13:32:18;3.75;;;1.98;;
1725;SDS011;41776;48.260;8.928;2023-07-31T13:34:47;7.57;;;2.53;;
1725;SDS011;41776;48.260;8.928;2023-07-31T13:37:17;6.45;;;2.03;;
1725;SDS011;41776;48.260;8.928;2023-07-31T13:39:44;5.65;;;2.30;;
1725;SDS011;41776;48.260;8.928;2023-07-31T13:42:10;2.78;;;1.80;;
1725;SDS011;41776;48.260;8.928;2023-07-31T13:44:37;4.05;;;1.95;;
1725;SDS011;41776;48.260;8.928;2023-07-31T13:47:04;4.55;;;1.98;;
1725;SDS011;41776;48.260;8.928;2023-07-31T13:49:34;4.20;;;2.22;;
1725;SDS011;41776;48.260;8.928;2023-07-31T13:52:03;4.95;;;2.10;;
1725;SDS011;41776;48.260;8.928;2023-07-31T13:54:30;3.20;;;1.90;;
1725;SDS011;41776;48.260;8.928;2023-07-31T13:56:57;5.50;;;2.20;;
1725;SDS011;41776;48.260;8.928;2023-07-31T13:59:23;3.65;;;2.00;;
1725;SDS011;41776;48.260;8.928;2023-07-31T14:01:50;4.40;;;2.33;;
1725;SDS011;41776;48.260;8.928;2023-07-31T14:04:17;3.60;;;2.30;;
1725;SDS011;41776;48.260;8.928;2023-07-31T14:06:44;4.45;;;2.17;;
1725;SDS011;41776;48.260;8.928;2023-07-31T14:09:12;3.38;;;1.92;;
1725;SDS011;41776;48.260;8.928;2023-07-31T14:11:39;5.40;;;2.15;;
1725;SDS011;41776;48.260;8.928;2023-07-31T14:14:06;4.88;;;2.00;;
1725;SDS011;41776;48.260;8.928;2023-07-31T14:16:32;3.28;;;2.10;;
1725;SDS011;41776;48.260;8.928;2023-07-31T14:18:59;3.60;;;1.88;;
1725;SDS011;41776;48.260;8.928;2023-07-31T14:21:25;3.33;;;1.90;;
1725;SDS011;41776;48.260;8.928;2023-07-31T14:23:54;2.53;;;1.95;;
1725;SDS011;41776;48.260;8.928;2023-07-31T14:26:22;2.90;;;2.00;;
1725;SDS011;41776;48.260;8.928;2023-07-31T14:28:48;2.63;;;1.83;;
1725;SDS011;41776;48.260;8.928;2023-07-31T14:31:14;4.47;;;1.90;;
1725;SDS011;41776;48.260;8.928;2023-07-31T14:33:41;4.13;;;2.08;;
1725;SDS011;41776;48.260;8.928;2023-07-31T14:36:08;6.35;;;2.42;;
1725;SDS011;41776;48.260;8.928;2023-07-31T14:38:34;4.60;;;2.25;;
1725;SDS011;41776;48.260;8.928;2023-07-31T14:41:01;4.28;;;2.15;;
1725;SDS011;41776;48.260;8.928;2023-07-31T14:43:29;6.60;;;2.60;;
1725;SDS011;41776;48.260;8.928;2023-07-31T14:45:58;3.55;;;2.20;;
1725;SDS011;41776;48.260;8.928;2023-07-31T14:48:25;4.30;;;2.10;;
1725;SDS011;41776;48.260;8.928;2023-07-31T14:50:52;5.95;;;2.00;;
1725;SDS011;41776;48.260;8.928;2023-07-31T14:53:21;5.38;;;2.40;;
1725;SDS011;41776;48.260;8.928;2023-07-31T14:55:48;5.32;;;2.30;;
1725;SDS011;41776;48.260;8.928;2023-07-31T14:58:14;5.10;;;2.10;;
1725;SDS011;41776;48.260;8.928;2023-07-31T15:00:43;5.28;;;2.30;;
1725;SDS011;41776;48.260;8.928;2023-07-31T15:03:10;4.80;;;2.10;;
1725;SDS011;41776;48.260;8.928;2023-07-31T15:05:36;5.18;;;2.28;;